sensor_id;sensor_type;location;lat;lon;timestamp;P1;durP1;ratioP1;P2;durP2;ratioP2
44228;SDS011;29904;51.058;5.378;2023-04-29T00:01:55;33.25;;;18.35;;
44228;SDS011;29904;51.058;5.378;2023-04-29T00:04:27;33.72;;;19.02;;
44228;SDS011;29904;51.058;5.378;2023-04-29T00:06:53;34.80;;;19.07;;
44228;SDS011;29904;51.058;5.378;2023-04-29T00:09:18;36.37;;;20.03;;
44228;SDS011;29904;51.058;5.378;2023-04-29T00:11:45;34.85;;;19.65;;
44228;SDS011;29904;51.058;5.378;2023-04-29T00:14:12;35.38;;;19.63;;
44228;SDS011;29904;51.058;5.378;2023-04-29T00:16:37;31.13;;;18.75;;
44228;SDS011;29904;51.058;5.378;2023-04-29T00:19:03;33.55;;;19.52;;
44228;SDS011;29904;51.058;5.378;2023-04-29T00:21:29;35.03;;;19.85;;
44228;SDS011;29904;51.058;5.378;2023-04-29T00:23:57;35.65;;;20.65;;
44228;SDS011;29904;51.058;5.378;2023-04-29T00:26:23;34.63;;;18.83;;
44228;SDS011;29904;51.058;5.378;2023-04-29T00:28:49;34.25;;;20.17;;
44228;SDS011;29904;51.058;5.378;2023-04-29T00:31:14;34.80;;;19.40;;
44228;SDS011;29904;51.058;5.378;2023-04-29T00:33:40;33.30;;;19.50;;
44228;SDS011;29904;51.058;5.378;2023-04-29T00:36:06;31.13;;;18.58;;
44228;SDS011;29904;51.058;5.378;2023-04-29T00:38:32;37.72;;;20.85;;
44228;SDS011;29904;51.058;5.378;2023-04-29T00:40:58;34.53;;;20.27;;
44228;SDS011;29904;51.058;5.378;2023-04-29T00:43:24;37.38;;;20.85;;
44228;SDS011;29904;51.058;5.378;2023-04-29T00:45:50;35.85;;;20.40;;
44228;SDS011;29904;51.058;5.378;2023-04-29T00:48:16;32.80;;;18.73;;
44228;SDS011;29904;51.058;5.378;2023-04-29T00:50:42;36.77;;;20.80;;
44228;SDS011;29904;51.058;5.378;2023-04-29T00:53:08;34.10;;;19.77;;
44228;SDS011;29904;51.058;5.378;2023-04-29T00:55:34;36.75;;;20.98;;
44228;SDS011;29904;51.058;5.378;2023-04-29T00:58:01;34.88;;;20.42;;
44228;SDS011;29904;51.058;5.378;2023-04-29T01:00:28;34.30;;;19.52;;
44228;SDS011;29904;51.058;5.378;2023-04-29T01:02:54;34.80;;;19.35;;
44228;SDS011;29904;51.058;5.378;2023-04-29T01:05:21;30.90;;;18.60;;
44228;SDS011;29904;51.058;5.378;2023-04-29T01:07:51;35.17;;;19.73;;
44228;SDS011;29904;51.058;5.378;2023-04-29T01:10:28;35.88;;;20.67;;
44228;SDS011;29904;51.058;5.378;2023-04-29T01:13:05;34.85;;;20.27;;
44228;SDS011;29904;51.058;5.378;2023-04-29T01:18:11;40.63;;;23.02;;
44228;SDS011;29904;51.058;5.378;2023-04-29T01:20:48;36.42;;;20.55;;
44228;SDS011;29904;51.058;5.378;2023-04-29T01:23:14;34.90;;;19.80;;
44228;SDS011;29904;51.058;5.378;2023-04-29T01:25:40;36.83;;;20.60;;
44228;SDS011;29904;51.058;5.378;2023-04-29T01:28:20;34.85;;;19.92;;
44228;SDS011;29904;51.058;5.378;2023-04-29T01:31:03;43.53;;;22.05;;
44228;SDS011;29904;51.058;5.378;2023-04-29T01:33:43;37.58;;;20.90;;
44228;SDS011;29904;51.058;5.378;2023-04-29T01:39:08;40.42;;;20.75;;
44228;SDS011;29904;51.058;5.378;2023-04-29T01:41:50;43.95;;;23.00;;
44228;SDS011;29904;51.058;5.378;2023-04-29T01:44:23;46.15;;;24.00;;
44228;SDS011;29904;51.058;5.378;2023-04-29T01:46:53;47.55;;;24.63;;
44228;SDS011;29904;51.058;5.378;2023-04-29T01:49:20;44.40;;;23.73;;
44228;SDS011;29904;51.058;5.378;2023-04-29T01:51:49;46.80;;;23.67;;
44228;SDS011;29904;51.058;5.378;2023-04-29T01:54:15;41.28;;;21.92;;
44228;SDS011;29904;51.058;5.378;2023-04-29T01:56:41;43.63;;;24.10;;
44228;SDS011;29904;51.058;5.378;2023-04-29T01:59:07;45.65;;;23.92;;
44228;SDS011;29904;51.058;5.378;2023-04-29T02:01:33;42.53;;;23.33;;
44228;SDS011;29904;51.058;5.378;2023-04-29T02:03:59;47.47;;;26.45;;
44228;SDS011;29904;51.058;5.378;2023-04-29T02:06:24;44.97;;;24.70;;
44228;SDS011;29904;51.058;5.378;2023-04-29T02:08:50;50.92;;;26.58;;
44228;SDS011;29904;51.058;5.378;2023-04-29T02:11:16;51.33;;;27.52;;
44228;SDS011;29904;51.058;5.378;2023-04-29T02:13:42;49.63;;;27.30;;
44228;SDS011;29904;51.058;5.378;2023-04-29T02:16:11;51.30;;;27.47;;
44228;SDS011;29904;51.058;5.378;2023-04-29T02:18:38;47.00;;;25.73;;
44228;SDS011;29904;51.058;5.378;2023-04-29T02:21:04;45.87;;;25.40;;
44228;SDS011;29904;51.058;5.378;2023-04-29T02:23:31;49.95;;;26.35;;
44228;SDS011;29904;51.058;5.378;2023-04-29T02:25:56;46.58;;;26.20;;
44228;SDS011;29904;51.058;5.378;2023-04-29T02:28:22;49.42;;;27.08;;
44228;SDS011;29904;51.058;5.378;2023-04-29T02:30:48;49.67;;;28.25;;
44228;SDS011;29904;51.058;5.378;2023-04-29T02:33:14;54.95;;;29.92;;
44228;SDS011;29904;51.058;5.378;2023-04-29T02:35:40;56.08;;;30.83;;
44228;SDS011;29904;51.058;5.378;2023-04-29T02:38:06;52.63;;;31.60;;
44228;SDS011;29904;51.058;5.378;2023-04-29T02:40:32;47.90;;;28.97;;
44228;SDS011;29904;51.058;5.378;2023-04-29T02:42:58;49.47;;;30.42;;
44228;SDS011;29904;51.058;5.378;2023-04-29T02:45:23;57.37;;;32.73;;
44228;SDS011;29904;51.058;5.378;2023-04-29T02:47:49;53.28;;;30.98;;
44228;SDS011;29904;51.058;5.378;2023-04-29T02:50:15;51.50;;;30.93;;
44228;SDS011;29904;51.058;5.378;2023-04-29T02:52:40;53.43;;;31.20;;
44228;SDS011;29904;51.058;5.378;2023-04-29T02:55:06;51.67;;;30.23;;
44228;SDS011;29904;51.058;5.378;2023-04-29T02:57:33;50.88;;;30.45;;
44228;SDS011;29904;51.058;5.378;2023-04-29T02:59:58;53.45;;;31.92;;
44228;SDS011;29904;51.058;5.378;2023-04-29T03:02:24;54.78;;;31.80;;
44228;SDS011;29904;51.058;5.378;2023-04-29T03:04:50;51.72;;;29.55;;
44228;SDS011;29904;51.058;5.378;2023-04-29T03:07:16;52.35;;;31.23;;
44228;SDS011;29904;51.058;5.378;2023-04-29T03:09:42;51.27;;;29.27;;
44228;SDS011;29904;51.058;5.378;2023-04-29T03:12:08;49.10;;;28.13;;
44228;SDS011;29904;51.058;5.378;2023-04-29T03:14:33;47.77;;;27.40;;
44228;SDS011;29904;51.058;5.378;2023-04-29T03:17:00;46.92;;;27.13;;
44228;SDS011;29904;51.058;5.378;2023-04-29T03:19:26;47.72;;;26.48;;
44228;SDS011;29904;51.058;5.378;2023-04-29T03:21:51;45.28;;;25.35;;
44228;SDS011;29904;51.058;5.378;2023-04-29T03:24:17;44.83;;;24.10;;
44228;SDS011;29904;51.058;5.378;2023-04-29T03:26:43;46.87;;;25.13;;
44228;SDS011;29904;51.058;5.378;2023-04-29T03:29:09;48.00;;;25.80;;
44228;SDS011;29904;51.058;5.378;2023-04-29T03:31:35;46.78;;;26.15;;
44228;SDS011;29904;51.058;5.378;2023-04-29T03:34:00;42.57;;;24.13;;
44228;SDS011;29904;51.058;5.378;2023-04-29T03:36:26;41.80;;;23.60;;
44228;SDS011;29904;51.058;5.378;2023-04-29T03:38:52;41.30;;;23.10;;
44228;SDS011;29904;51.058;5.378;2023-04-29T03:41:17;36.67;;;20.73;;
44228;SDS011;29904;51.058;5.378;2023-04-29T03:43:43;36.85;;;22.13;;
44228;SDS011;29904;51.058;5.378;2023-04-29T03:46:09;39.47;;;23.42;;
44228;SDS011;29904;51.058;5.378;2023-04-29T03:48:35;38.40;;;22.35;;
44228;SDS011;29904;51.058;5.378;2023-04-29T03:51:01;39.75;;;22.13;;
44228;SDS011;29904;51.058;5.378;2023-04-29T03:53:28;40.43;;;23.27;;
44228;SDS011;29904;51.058;5.378;2023-04-29T03:55:53;41.88;;;22.73;;
44228;SDS011;29904;51.058;5.378;2023-04-29T03:58:19;46.47;;;23.47;;
44228;SDS011;29904;51.058;5.378;2023-04-29T04:00:45;42.80;;;22.63;;
44228;SDS011;29904;51.058;5.378;2023-04-29T04:03:11;47.70;;;24.42;;
44228;SDS011;29904;51.058;5.378;2023-04-29T04:05:37;49.08;;;24.85;;
44228;SDS011;29904;51.058;5.378;2023-04-29T04:08:02;39.33;;;22.23;;
44228;SDS011;29904;51.058;5.378;2023-04-29T04:10:28;39.03;;;22.33;;
44228;SDS011;29904;51.058;5.378;2023-04-29T04:12:54;45.03;;;23.50;;
44228;SDS011;29904;51.058;5.378;2023-04-29T04:15:20;41.65;;;22.25;;
44228;SDS011;29904;51.058;5.378;2023-04-29T04:17:46;41.38;;;22.17;;
44228;SDS011;29904;51.058;5.378;2023-04-29T04:20:12;47.78;;;24.83;;
44228;SDS011;29904;51.058;5.378;2023-04-29T04:22:38;49.13;;;25.23;;
44228;SDS011;29904;51.058;5.378;2023-04-29T04:25:04;45.53;;;23.92;;
44228;SDS011;29904;51.058;5.378;2023-04-29T04:27:30;44.88;;;23.80;;
44228;SDS011;29904;51.058;5.378;2023-04-29T04:29:55;43.67;;;24.27;;
44228;SDS011;29904;51.058;5.378;2023-04-29T04:32:21;45.43;;;23.40;;
44228;SDS011;29904;51.058;5.378;2023-04-29T04:34:47;47.40;;;23.25;;
44228;SDS011;29904;51.058;5.378;2023-04-29T04:37:14;47.40;;;25.50;;
44228;SDS011;29904;51.058;5.378;2023-04-29T04:39:40;49.50;;;26.33;;
44228;SDS011;29904;51.058;5.378;2023-04-29T04:42:06;45.38;;;25.08;;
44228;SDS011;29904;51.058;5.378;2023-04-29T04:44:31;49.45;;;26.38;;
44228;SDS011;29904;51.058;5.378;2023-04-29T04:46:57;46.75;;;24.52;;
44228;SDS011;29904;51.058;5.378;2023-04-29T04:49:26;41.80;;;23.50;;
44228;SDS011;29904;51.058;5.378;2023-04-29T04:51:52;53.88;;;25.90;;
44228;SDS011;29904;51.058;5.378;2023-04-29T04:54:18;39.22;;;22.30;;
44228;SDS011;29904;51.058;5.378;2023-04-29T04:56:44;37.15;;;21.25;;
44228;SDS011;29904;51.058;5.378;2023-04-29T04:59:10;42.20;;;22.23;;
44228;SDS011;29904;51.058;5.378;2023-04-29T05:01:35;38.63;;;21.40;;
44228;SDS011;29904;51.058;5.378;2023-04-29T05:04:01;38.73;;;21.50;;
44228;SDS011;29904;51.058;5.378;2023-04-29T05:06:27;36.55;;;21.88;;
44228;SDS011;29904;51.058;5.378;2023-04-29T05:08:53;37.13;;;21.80;;
44228;SDS011;29904;51.058;5.378;2023-04-29T05:11:19;41.60;;;22.80;;
44228;SDS011;29904;51.058;5.378;2023-04-29T05:13:46;38.90;;;21.40;;
44228;SDS011;29904;51.058;5.378;2023-04-29T05:16:12;41.50;;;22.40;;
44228;SDS011;29904;51.058;5.378;2023-04-29T05:18:38;38.28;;;21.13;;
44228;SDS011;29904;51.058;5.378;2023-04-29T05:21:04;37.38;;;20.92;;
44228;SDS011;29904;51.058;5.378;2023-04-29T05:23:30;33.75;;;19.58;;
44228;SDS011;29904;51.058;5.378;2023-04-29T05:25:56;32.45;;;19.00;;
44228;SDS011;29904;51.058;5.378;2023-04-29T05:28:22;33.83;;;20.07;;
44228;SDS011;29904;51.058;5.378;2023-04-29T05:30:50;33.50;;;19.43;;
44228;SDS011;29904;51.058;5.378;2023-04-29T05:33:16;32.40;;;18.25;;
44228;SDS011;29904;51.058;5.378;2023-04-29T05:35:42;32.77;;;18.97;;
44228;SDS011;29904;51.058;5.378;2023-04-29T05:38:07;39.03;;;20.57;;
44228;SDS011;29904;51.058;5.378;2023-04-29T05:40:33;36.67;;;20.60;;
44228;SDS011;29904;51.058;5.378;2023-04-29T05:42:59;34.47;;;19.63;;
44228;SDS011;29904;51.058;5.378;2023-04-29T05:45:25;38.53;;;20.53;;
44228;SDS011;29904;51.058;5.378;2023-04-29T05:47:51;36.90;;;20.53;;
44228;SDS011;29904;51.058;5.378;2023-04-29T05:50:16;36.15;;;21.08;;
44228;SDS011;29904;51.058;5.378;2023-04-29T05:52:42;32.87;;;18.87;;
44228;SDS011;29904;51.058;5.378;2023-04-29T05:55:08;37.42;;;20.05;;
44228;SDS011;29904;51.058;5.378;2023-04-29T05:57:34;44.83;;;22.88;;
44228;SDS011;29904;51.058;5.378;2023-04-29T05:59:59;39.83;;;20.90;;
44228;SDS011;29904;51.058;5.378;2023-04-29T06:02:26;43.03;;;21.52;;
44228;SDS011;29904;51.058;5.378;2023-04-29T06:04:52;36.65;;;20.65;;
44228;SDS011;29904;51.058;5.378;2023-04-29T06:07:17;44.03;;;22.25;;
44228;SDS011;29904;51.058;5.378;2023-04-29T06:09:43;40.60;;;21.63;;
44228;SDS011;29904;51.058;5.378;2023-04-29T06:12:09;40.90;;;20.98;;
44228;SDS011;29904;51.058;5.378;2023-04-29T06:14:35;39.28;;;21.50;;
44228;SDS011;29904;51.058;5.378;2023-04-29T06:17:01;36.45;;;20.25;;
44228;SDS011;29904;51.058;5.378;2023-04-29T06:19:27;36.90;;;20.50;;
44228;SDS011;29904;51.058;5.378;2023-04-29T06:21:53;34.67;;;19.38;;
44228;SDS011;29904;51.058;5.378;2023-04-29T06:24:19;31.38;;;18.42;;
44228;SDS011;29904;51.058;5.378;2023-04-29T06:26:45;36.65;;;20.05;;
44228;SDS011;29904;51.058;5.378;2023-04-29T06:29:10;37.53;;;20.23;;
44228;SDS011;29904;51.058;5.378;2023-04-29T06:31:36;37.65;;;20.90;;
44228;SDS011;29904;51.058;5.378;2023-04-29T06:34:02;37.63;;;20.52;;
44228;SDS011;29904;51.058;5.378;2023-04-29T06:36:28;39.95;;;21.33;;
44228;SDS011;29904;51.058;5.378;2023-04-29T06:38:54;36.38;;;20.60;;
44228;SDS011;29904;51.058;5.378;2023-04-29T06:41:19;32.53;;;18.50;;
44228;SDS011;29904;51.058;5.378;2023-04-29T06:43:45;36.72;;;20.25;;
44228;SDS011;29904;51.058;5.378;2023-04-29T06:46:11;35.30;;;19.60;;
44228;SDS011;29904;51.058;5.378;2023-04-29T06:48:37;34.58;;;18.45;;
44228;SDS011;29904;51.058;5.378;2023-04-29T06:51:03;35.67;;;19.97;;
44228;SDS011;29904;51.058;5.378;2023-04-29T06:53:28;33.03;;;18.30;;
44228;SDS011;29904;51.058;5.378;2023-04-29T06:55:54;30.40;;;17.90;;
44228;SDS011;29904;51.058;5.378;2023-04-29T06:58:20;29.97;;;17.90;;
44228;SDS011;29904;51.058;5.378;2023-04-29T07:00:46;26.47;;;16.00;;
44228;SDS011;29904;51.058;5.378;2023-04-29T07:03:14;26.73;;;16.67;;
44228;SDS011;29904;51.058;5.378;2023-04-29T07:05:40;28.88;;;16.98;;
44228;SDS011;29904;51.058;5.378;2023-04-29T07:08:09;30.38;;;17.52;;
44228;SDS011;29904;51.058;5.378;2023-04-29T07:10:35;26.27;;;16.58;;
44228;SDS011;29904;51.058;5.378;2023-04-29T07:13:02;34.83;;;19.17;;
44228;SDS011;29904;51.058;5.378;2023-04-29T07:15:28;28.42;;;17.05;;
44228;SDS011;29904;51.058;5.378;2023-04-29T07:17:54;28.70;;;16.77;;
44228;SDS011;29904;51.058;5.378;2023-04-29T07:20:21;34.90;;;18.05;;
44228;SDS011;29904;51.058;5.378;2023-04-29T07:22:46;28.27;;;17.50;;
44228;SDS011;29904;51.058;5.378;2023-04-29T07:25:12;26.88;;;16.05;;
44228;SDS011;29904;51.058;5.378;2023-04-29T07:27:38;26.55;;;16.40;;
44228;SDS011;29904;51.058;5.378;2023-04-29T07:30:05;24.17;;;15.50;;
44228;SDS011;29904;51.058;5.378;2023-04-29T07:32:31;27.80;;;17.02;;
44228;SDS011;29904;51.058;5.378;2023-04-29T07:34:57;27.48;;;16.73;;
44228;SDS011;29904;51.058;5.378;2023-04-29T07:37:23;28.80;;;17.67;;
44228;SDS011;29904;51.058;5.378;2023-04-29T07:39:49;25.08;;;15.30;;
44228;SDS011;29904;51.058;5.378;2023-04-29T07:42:15;26.15;;;16.70;;
44228;SDS011;29904;51.058;5.378;2023-04-29T07:44:41;29.02;;;16.92;;
44228;SDS011;29904;51.058;5.378;2023-04-29T07:47:07;30.83;;;18.23;;
44228;SDS011;29904;51.058;5.378;2023-04-29T07:49:32;30.33;;;16.85;;
44228;SDS011;29904;51.058;5.378;2023-04-29T07:51:59;30.92;;;17.77;;
44228;SDS011;29904;51.058;5.378;2023-04-29T07:54:26;27.30;;;16.55;;
44228;SDS011;29904;51.058;5.378;2023-04-29T07:56:52;27.40;;;17.35;;
44228;SDS011;29904;51.058;5.378;2023-04-29T07:59:17;29.17;;;17.97;;
44228;SDS011;29904;51.058;5.378;2023-04-29T08:01:43;25.83;;;17.10;;
44228;SDS011;29904;51.058;5.378;2023-04-29T08:04:09;30.90;;;17.63;;
44228;SDS011;29904;51.058;5.378;2023-04-29T08:06:34;27.27;;;16.97;;
44228;SDS011;29904;51.058;5.378;2023-04-29T08:09:00;27.45;;;17.10;;
44228;SDS011;29904;51.058;5.378;2023-04-29T08:11:26;25.50;;;16.90;;
44228;SDS011;29904;51.058;5.378;2023-04-29T08:13:52;28.27;;;17.88;;
44228;SDS011;29904;51.058;5.378;2023-04-29T08:16:18;30.92;;;19.13;;
44228;SDS011;29904;51.058;5.378;2023-04-29T08:18:45;27.27;;;17.75;;
44228;SDS011;29904;51.058;5.378;2023-04-29T08:21:11;30.88;;;18.20;;
44228;SDS011;29904;51.058;5.378;2023-04-29T08:23:37;26.42;;;17.70;;
44228;SDS011;29904;51.058;5.378;2023-04-29T08:26:04;27.52;;;17.85;;
44228;SDS011;29904;51.058;5.378;2023-04-29T08:28:30;25.58;;;16.65;;
44228;SDS011;29904;51.058;5.378;2023-04-29T08:30:55;25.90;;;16.25;;
44228;SDS011;29904;51.058;5.378;2023-04-29T08:33:21;23.48;;;15.88;;
44228;SDS011;29904;51.058;5.378;2023-04-29T08:35:47;26.00;;;17.08;;
44228;SDS011;29904;51.058;5.378;2023-04-29T08:38:14;25.85;;;16.45;;
44228;SDS011;29904;51.058;5.378;2023-04-29T08:40:43;25.17;;;15.90;;
44228;SDS011;29904;51.058;5.378;2023-04-29T08:43:11;26.25;;;16.52;;
44228;SDS011;29904;51.058;5.378;2023-04-29T08:45:40;24.38;;;14.82;;
44228;SDS011;29904;51.058;5.378;2023-04-29T08:48:09;22.50;;;14.23;;
44228;SDS011;29904;51.058;5.378;2023-04-29T08:50:37;21.70;;;13.70;;
44228;SDS011;29904;51.058;5.378;2023-04-29T08:53:07;21.63;;;14.83;;
44228;SDS011;29904;51.058;5.378;2023-04-29T08:55:44;22.65;;;13.10;;
44228;SDS011;29904;51.058;5.378;2023-04-29T08:58:11;21.70;;;14.55;;
44228;SDS011;29904;51.058;5.378;2023-04-29T09:00:38;22.55;;;14.50;;
44228;SDS011;29904;51.058;5.378;2023-04-29T09:06:01;20.17;;;13.50;;
44228;SDS011;29904;51.058;5.378;2023-04-29T09:08:29;19.77;;;12.88;;
44228;SDS011;29904;51.058;5.378;2023-04-29T09:10:56;20.58;;;13.18;;
44228;SDS011;29904;51.058;5.378;2023-04-29T09:13:27;20.45;;;13.23;;
44228;SDS011;29904;51.058;5.378;2023-04-29T09:15:55;18.42;;;12.27;;
44228;SDS011;29904;51.058;5.378;2023-04-29T09:21:13;18.67;;;12.10;;
44228;SDS011;29904;51.058;5.378;2023-04-29T09:23:50;17.33;;;11.52;;
44228;SDS011;29904;51.058;5.378;2023-04-29T09:26:17;17.85;;;11.57;;
44228;SDS011;29904;51.058;5.378;2023-04-29T09:28:43;15.52;;;10.60;;
44228;SDS011;29904;51.058;5.378;2023-04-29T09:31:11;18.45;;;12.30;;
44228;SDS011;29904;51.058;5.378;2023-04-29T09:39:10;15.73;;;10.88;;
44228;SDS011;29904;51.058;5.378;2023-04-29T09:46:57;16.63;;;10.90;;
44228;SDS011;29904;51.058;5.378;2023-04-29T09:49:33;17.40;;;10.82;;
44228;SDS011;29904;51.058;5.378;2023-04-29T09:52:03;15.47;;;10.37;;
44228;SDS011;29904;51.058;5.378;2023-04-29T09:54:30;14.65;;;10.27;;
44228;SDS011;29904;51.058;5.378;2023-04-29T09:56:58;14.15;;;10.30;;
44228;SDS011;29904;51.058;5.378;2023-04-29T09:59:26;17.07;;;11.17;;
44228;SDS011;29904;51.058;5.378;2023-04-29T10:01:53;14.65;;;10.35;;
44228;SDS011;29904;51.058;5.378;2023-04-29T10:04:20;17.50;;;11.05;;
44228;SDS011;29904;51.058;5.378;2023-04-29T10:06:49;18.80;;;12.48;;
44228;SDS011;29904;51.058;5.378;2023-04-29T10:09:16;19.00;;;12.00;;
44228;SDS011;29904;51.058;5.378;2023-04-29T10:11:45;17.17;;;11.27;;
44228;SDS011;29904;51.058;5.378;2023-04-29T10:14:15;18.07;;;11.97;;
44228;SDS011;29904;51.058;5.378;2023-04-29T10:16:58;18.70;;;12.13;;
44228;SDS011;29904;51.058;5.378;2023-04-29T10:22:06;17.40;;;11.27;;
44228;SDS011;29904;51.058;5.378;2023-04-29T10:24:36;17.70;;;12.43;;
44228;SDS011;29904;51.058;5.378;2023-04-29T10:27:03;17.27;;;12.05;;
44228;SDS011;29904;51.058;5.378;2023-04-29T10:29:32;15.73;;;11.23;;
44228;SDS011;29904;51.058;5.378;2023-04-29T10:32:00;16.13;;;11.18;;
44228;SDS011;29904;51.058;5.378;2023-04-29T10:34:28;17.53;;;11.17;;
44228;SDS011;29904;51.058;5.378;2023-04-29T10:36:56;18.45;;;12.55;;
44228;SDS011;29904;51.058;5.378;2023-04-29T10:39:47;16.52;;;11.48;;
44228;SDS011;29904;51.058;5.378;2023-04-29T10:42:35;15.43;;;10.60;;
44228;SDS011;29904;51.058;5.378;2023-04-29T10:45:17;19.08;;;11.57;;
44228;SDS011;29904;51.058;5.378;2023-04-29T10:50:30;15.73;;;11.07;;
44228;SDS011;29904;51.058;5.378;2023-04-29T10:53:04;18.03;;;11.80;;
44228;SDS011;29904;51.058;5.378;2023-04-29T10:55:30;17.08;;;11.05;;
44228;SDS011;29904;51.058;5.378;2023-04-29T10:58:00;14.15;;;9.90;;
44228;SDS011;29904;51.058;5.378;2023-04-29T11:00:29;13.48;;;10.07;;
44228;SDS011;29904;51.058;5.378;2023-04-29T11:03:04;13.25;;;9.65;;
44228;SDS011;29904;51.058;5.378;2023-04-29T11:05:34;14.70;;;9.85;;
44228;SDS011;29904;51.058;5.378;2023-04-29T11:08:10;16.67;;;11.30;;
44228;SDS011;29904;51.058;5.378;2023-04-29T11:10:40;15.52;;;10.57;;
44228;SDS011;29904;51.058;5.378;2023-04-29T11:13:23;14.68;;;10.27;;
44228;SDS011;29904;51.058;5.378;2023-04-29T11:15:52;13.32;;;9.73;;
44228;SDS011;29904;51.058;5.378;2023-04-29T11:18:27;15.90;;;10.20;;
44228;SDS011;29904;51.058;5.378;2023-04-29T11:23:35;15.35;;;10.90;;
44228;SDS011;29904;51.058;5.378;2023-04-29T11:26:01;13.52;;;9.80;;
44228;SDS011;29904;51.058;5.378;2023-04-29T11:28:28;12.60;;;9.40;;
44228;SDS011;29904;51.058;5.378;2023-04-29T11:30:56;11.60;;;8.63;;
44228;SDS011;29904;51.058;5.378;2023-04-29T11:33:22;11.32;;;8.70;;
44228;SDS011;29904;51.058;5.378;2023-04-29T11:35:49;16.23;;;9.48;;
44228;SDS011;29904;51.058;5.378;2023-04-29T11:38:16;13.13;;;9.02;;
44228;SDS011;29904;51.058;5.378;2023-04-29T11:40:42;13.07;;;9.20;;
44228;SDS011;29904;51.058;5.378;2023-04-29T11:43:17;12.90;;;8.75;;
44228;SDS011;29904;51.058;5.378;2023-04-29T11:45:46;11.88;;;8.43;;
44228;SDS011;29904;51.058;5.378;2023-04-29T11:48:18;12.45;;;8.15;;
44228;SDS011;29904;51.058;5.378;2023-04-29T11:50:45;13.93;;;9.50;;
44228;SDS011;29904;51.058;5.378;2023-04-29T11:53:12;12.38;;;9.18;;
44228;SDS011;29904;51.058;5.378;2023-04-29T11:55:40;11.38;;;7.93;;
44228;SDS011;29904;51.058;5.378;2023-04-29T11:58:07;10.55;;;7.90;;
44228;SDS011;29904;51.058;5.378;2023-04-29T12:00:33;11.00;;;7.78;;
44228;SDS011;29904;51.058;5.378;2023-04-29T12:02:59;12.77;;;8.40;;
44228;SDS011;29904;51.058;5.378;2023-04-29T12:05:25;11.95;;;8.48;;
44228;SDS011;29904;51.058;5.378;2023-04-29T12:07:51;10.43;;;6.95;;
44228;SDS011;29904;51.058;5.378;2023-04-29T12:10:18;10.20;;;6.95;;
44228;SDS011;29904;51.058;5.378;2023-04-29T12:12:45;10.25;;;7.28;;
44228;SDS011;29904;51.058;5.378;2023-04-29T12:15:12;9.52;;;6.78;;
44228;SDS011;29904;51.058;5.378;2023-04-29T12:17:38;9.63;;;6.57;;
44228;SDS011;29904;51.058;5.378;2023-04-29T12:20:05;12.07;;;8.40;;
44228;SDS011;29904;51.058;5.378;2023-04-29T12:22:33;11.95;;;7.95;;
44228;SDS011;29904;51.058;5.378;2023-04-29T12:25:02;11.95;;;7.53;;
44228;SDS011;29904;51.058;5.378;2023-04-29T12:27:28;12.55;;;7.15;;
44228;SDS011;29904;51.058;5.378;2023-04-29T12:29:55;11.60;;;7.10;;
44228;SDS011;29904;51.058;5.378;2023-04-29T12:32:22;12.38;;;7.53;;
44228;SDS011;29904;51.058;5.378;2023-04-29T12:34:49;10.05;;;7.18;;
44228;SDS011;29904;51.058;5.378;2023-04-29T12:37:20;10.05;;;6.82;;
44228;SDS011;29904;51.058;5.378;2023-04-29T12:39:48;11.23;;;6.93;;
44228;SDS011;29904;51.058;5.378;2023-04-29T12:42:14;8.68;;;6.28;;
44228;SDS011;29904;51.058;5.378;2023-04-29T12:44:44;10.23;;;6.35;;
44228;SDS011;29904;51.058;5.378;2023-04-29T12:47:13;8.73;;;5.50;;
44228;SDS011;29904;51.058;5.378;2023-04-29T12:49:40;8.75;;;5.93;;
44228;SDS011;29904;51.058;5.378;2023-04-29T12:52:07;9.68;;;5.75;;
44228;SDS011;29904;51.058;5.378;2023-04-29T12:54:37;10.20;;;6.40;;
44228;SDS011;29904;51.058;5.378;2023-04-29T12:57:07;8.35;;;5.90;;
44228;SDS011;29904;51.058;5.378;2023-04-29T12:59:35;8.27;;;5.82;;
44228;SDS011;29904;51.058;5.378;2023-04-29T13:02:01;7.20;;;5.45;;
44228;SDS011;29904;51.058;5.378;2023-04-29T13:04:26;8.60;;;5.72;;
44228;SDS011;29904;51.058;5.378;2023-04-29T13:06:52;8.37;;;6.10;;
44228;SDS011;29904;51.058;5.378;2023-04-29T13:09:24;8.18;;;5.70;;
44228;SDS011;29904;51.058;5.378;2023-04-29T13:11:52;10.57;;;6.53;;
44228;SDS011;29904;51.058;5.378;2023-04-29T13:14:18;9.60;;;7.00;;
44228;SDS011;29904;51.058;5.378;2023-04-29T13:16:44;9.77;;;7.10;;
44228;SDS011;29904;51.058;5.378;2023-04-29T13:19:10;10.15;;;6.18;;
44228;SDS011;29904;51.058;5.378;2023-04-29T13:21:37;9.75;;;5.65;;
44228;SDS011;29904;51.058;5.378;2023-04-29T13:24:03;8.95;;;5.47;;
44228;SDS011;29904;51.058;5.378;2023-04-29T13:26:29;8.38;;;5.70;;
44228;SDS011;29904;51.058;5.378;2023-04-29T13:28:55;6.75;;;5.03;;
44228;SDS011;29904;51.058;5.378;2023-04-29T13:31:21;8.85;;;6.00;;
44228;SDS011;29904;51.058;5.378;2023-04-29T13:33:46;8.47;;;5.50;;
44228;SDS011;29904;51.058;5.378;2023-04-29T13:36:12;8.55;;;5.70;;
44228;SDS011;29904;51.058;5.378;2023-04-29T13:38:39;9.67;;;6.53;;
44228;SDS011;29904;51.058;5.378;2023-04-29T13:41:04;8.17;;;6.00;;
44228;SDS011;29904;51.058;5.378;2023-04-29T13:43:30;9.70;;;6.20;;
44228;SDS011;29904;51.058;5.378;2023-04-29T13:45:56;9.25;;;5.97;;
44228;SDS011;29904;51.058;5.378;2023-04-29T13:48:22;8.35;;;5.68;;
44228;SDS011;29904;51.058;5.378;2023-04-29T13:50:48;8.25;;;5.70;;
44228;SDS011;29904;51.058;5.378;2023-04-29T13:53:14;7.70;;;5.50;;
44228;SDS011;29904;51.058;5.378;2023-04-29T13:55:41;10.35;;;6.47;;
44228;SDS011;29904;51.058;5.378;2023-04-29T13:58:07;10.90;;;6.88;;
44228;SDS011;29904;51.058;5.378;2023-04-29T14:00:32;8.48;;;5.57;;
44228;SDS011;29904;51.058;5.378;2023-04-29T14:02:58;8.33;;;5.40;;
44228;SDS011;29904;51.058;5.378;2023-04-29T14:05:23;8.25;;;5.90;;
44228;SDS011;29904;51.058;5.378;2023-04-29T14:07:49;8.13;;;6.10;;
44228;SDS011;29904;51.058;5.378;2023-04-29T14:10:16;7.18;;;5.22;;
44228;SDS011;29904;51.058;5.378;2023-04-29T14:12:41;8.57;;;5.40;;
44228;SDS011;29904;51.058;5.378;2023-04-29T14:15:07;7.63;;;5.67;;
44228;SDS011;29904;51.058;5.378;2023-04-29T14:17:34;7.82;;;5.30;;
44228;SDS011;29904;51.058;5.378;2023-04-29T14:20:00;9.77;;;6.68;;
44228;SDS011;29904;51.058;5.378;2023-04-29T14:22:26;9.07;;;6.03;;
44228;SDS011;29904;51.058;5.378;2023-04-29T14:24:52;7.85;;;5.57;;
44228;SDS011;29904;51.058;5.378;2023-04-29T14:27:18;6.47;;;4.80;;
44228;SDS011;29904;51.058;5.378;2023-04-29T14:29:43;7.60;;;5.60;;
44228;SDS011;29904;51.058;5.378;2023-04-29T14:32:10;6.28;;;4.85;;
44228;SDS011;29904;51.058;5.378;2023-04-29T14:34:36;6.37;;;4.73;;
44228;SDS011;29904;51.058;5.378;2023-04-29T14:37:02;8.27;;;6.00;;
44228;SDS011;29904;51.058;5.378;2023-04-29T14:39:27;7.75;;;5.50;;
44228;SDS011;29904;51.058;5.378;2023-04-29T14:41:53;6.80;;;5.20;;
44228;SDS011;29904;51.058;5.378;2023-04-29T14:44:19;7.70;;;4.87;;
44228;SDS011;29904;51.058;5.378;2023-04-29T14:46:44;9.45;;;5.38;;
44228;SDS011;29904;51.058;5.378;2023-04-29T14:49:10;8.93;;;5.33;;
44228;SDS011;29904;51.058;5.378;2023-04-29T14:51:36;9.27;;;5.37;;
44228;SDS011;29904;51.058;5.378;2023-04-29T14:54:01;7.80;;;5.80;;
44228;SDS011;29904;51.058;5.378;2023-04-29T14:56:27;11.13;;;5.75;;